Time;durP1;ratioP1;P1;durP2;ratioP2;P2;SDS_P1;SDS_P2;PMS_P1;PMS_P2;Temp;Humidity;BMP_temperature;BMP_pressure;BME280_temperature;BME280_humidity;BME280_pressure;Samples;Min_cycle;Max_cycle;Signal;HPM_P1;HPM_P2
2023/01/03 00:02:29;;;;;;;18.20;11.50;;;;;;;9.56;78.09;100681.35;108744;1260;36051;-79
2023/01/03 00:05:08;;;;;;;16.20;10.30;;;;;;;9.59;77.96;100680.21;108551;1260;36582;-80
2023/01/03 00:07:47;;;;;;;15.70;10.70;;;;;;;9.62;77.84;100679.46;108423;1260;36860;-81
2023/01/03 00:10:21;;;;;;;14.20;9.50;;;;;;;9.63;77.78;100671.41;108631;1277;37069;-77
2023/01/03 00:13:05;;;;;;;14.60;10.00;;;;;;;9.63;77.65;100665.46;108832;1261;37035;-80
2023/01/03 00:15:45;;;;;;;14.60;9.90;;;;;;;9.65;77.51;100670.65;108763;1269;37501;-79
2023/01/03 00:18:27;;;;;;;17.00;10.50;;;;;;;9.66;77.56;100673.75;108643;1257;36980;-80
2023/01/03 00:21:12;;;;;;;17.30;10.90;;;;;;;9.66;77.39;100681.23;108465;1261;36133;-80
2023/01/03 00:23:53;;;;;;;14.20;9.60;;;;;;;9.63;77.34;100686.55;108416;1270;37140;-80
2023/01/03 00:26:33;;;;;;;16.40;9.80;;;;;;;9.63;77.37;100687.44;108620;1274;37240;-79
2023/01/03 00:29:07;;;;;;;14.80;9.80;;;;;;;9.64;77.47;100691.59;108685;1270;36095;-77
2023/01/03 00:31:46;;;;;;;18.50;11.60;;;;;;;9.64;77.41;100688.27;108307;1279;37110;-77
2023/01/03 00:34:20;;;;;;;18.00;11.30;;;;;;;9.64;77.28;100692.63;108310;1279;36041;-76
2023/01/03 00:36:55;;;;;;;17.30;11.10;;;;;;;9.62;77.26;100696.66;108195;1274;36844;-77
2023/01/03 00:39:33;;;;;;;16.60;10.20;;;;;;;9.61;77.22;100701.61;108280;1261;37321;-77
2023/01/03 00:42:08;;;;;;;16.40;10.80;;;;;;;9.59;77.34;100710.20;108312;1279;36957;-77
2023/01/03 00:44:44;;;;;;;14.80;10.50;;;;;;;9.58;77.45;100708.64;108372;1261;38481;-80
2023/01/03 00:47:23;;;;;;;16.50;9.90;;;;;;;9.59;77.16;100711.94;108449;1258;37341;-80
2023/01/03 00:49:57;;;;;;;;;;;;;;;9.59;77.40;100716.11;108444;1265;37068;-79
2023/01/03 00:52:32;;;;;;;17.80;10.70;;;;;;;9.53;77.35;100725.50;108441;1270;37812;-80
2023/01/03 00:55:15;;;;;;;16.70;11.70;;;;;;;9.49;77.27;100732.92;108433;1261;37034;-79
2023/01/03 00:57:50;;;;;;;14.90;10.80;;;;;;;9.48;77.42;100732.27;108404;1271;37319;-78
2023/01/03 01:00:32;;;;;;;15.10;10.80;;;;;;;9.48;77.34;100735.23;108629;1261;37095;-79
2023/01/03 01:03:06;;;;;;;16.40;10.10;;;;;;;9.48;77.34;100737.15;108792;1279;36250;-80
2023/01/03 01:05:41;;;;;;;16.50;10.70;;;;;;;9.49;77.47;100735.55;108507;1279;36823;-80
2023/01/03 01:08:15;;;;;;;14.00;9.70;;;;;;;9.51;77.51;100732.72;108392;1279;37117;-80
2023/01/03 01:11:01;;;;;;;14.50;9.70;;;;;;;9.54;77.53;100735.92;108307;1260;37276;-77
2023/01/03 01:13:38;;;;;;;16.80;9.70;;;;;;;9.58;77.45;100729.18;108262;1270;36216;-77
2023/01/03 01:16:19;;;;;;;15.90;9.70;;;;;;;9.63;77.65;100728.89;108436;1279;36040;-80
2023/01/03 01:18:58;;;;;;;14.00;10.20;;;;;;;9.67;77.42;100736.95;108453;1261;36969;-77
2023/01/03 01:21:32;;;;;;;;;;;;;;;9.70;77.41;100738.95;108315;1257;37093;-77
2023/01/03 01:24:09;;;;;;;11.20;8.30;;;;;;;9.69;77.35;100737.23;108321;1260;37218;-77
2023/01/03 01:26:46;;;;;;;15.40;8.80;;;;;;;9.74;77.28;100738.84;108277;1260;37228;-77
2023/01/03 01:29:20;;;;;;;14.00;8.40;;;;;;;9.77;77.19;100739.30;108323;1257;38335;-75
2023/01/03 01:31:58;;;;;;;12.90;8.60;;;;;;;9.80;77.25;100745.12;108217;1263;38416;-74
2023/01/03 01:34:33;;;;;;;14.30;9.10;;;;;;;9.83;77.28;100751.83;108292;1260;38636;-78
2023/01/03 01:37:16;;;;;;;12.80;8.10;;;;;;;9.84;77.00;100757.02;108415;1279;37163;-79
2023/01/03 01:39:51;;;;;;;12.30;8.20;;;;;;;9.87;77.14;100760.60;108322;1262;37048;-80
2023/01/03 01:45:24;;;;;;;13.30;8.90;;;;;;;9.95;76.94;100768.21;108360;1260;37697;-77
2023/01/03 01:47:59;;;;;;;14.50;8.40;;;;;;;9.98;76.80;100768.48;108270;1261;37285;-77
2023/01/03 01:54:42;;;;;;;12.60;7.90;;;;;;;10.04;76.36;100760.10;108705;1270;36929;-77
2023/01/03 01:57:21;;;;;;;12.50;8.00;;;;;;;10.07;76.53;100761.23;108564;1256;37106;-77
2023/01/03 01:59:55;;;;;;;13.30;7.80;;;;;;;10.12;76.21;100767.38;108616;1277;37014;-79
2023/01/03 02:02:34;;;;;;;12.50;7.90;;;;;;;10.17;76.24;100770.19;109081;1254;37305;-80
2023/01/03 02:05:14;;;;;;;12.50;8.20;;;;;;;10.21;76.05;100776.00;108871;1254;37199;-80
2023/01/03 02:07:52;;;;;;;13.80;8.00;;;;;;;10.23;75.93;100780.45;108460;1263;37375;-79
2023/01/03 02:10:48;;;;;;;12.90;7.90;;;;;;;10.25;75.92;100781.65;108764;1272;37536;-79
2023/01/03 02:13:32;;;;;;;11.00;7.40;;;;;;;10.27;75.80;100784.04;109319;1277;37233;-80
2023/01/03 02:16:23;;;;;;;13.40;7.80;;;;;;;10.30;75.77;100784.46;108449;1260;37366;-78
2023/01/03 02:19:17;;;;;;;13.90;8.00;;;;;;;10.34;75.40;100796.04;108478;1254;174398;-80
2023/01/03 02:22:26;;;;;;;13.80;9.00;;;;;;;10.37;75.46;100800.49;108628;1259;36113;-80
2023/01/03 02:25:37;;;;;;;13.30;7.90;;;;;;;10.38;75.51;100804.80;108590;1265;37319;-77
2023/01/03 02:29:23;;;;;;;14.50;8.60;;;;;;;10.37;75.20;100804.85;108340;1277;37101;-77
2023/01/03 02:32:07;;;;;;;11.50;7.70;;;;;;;10.37;75.27;100806.23;108544;1277;37086;-74
2023/01/03 02:34:49;;;;;;;10.80;7.60;;;;;;;10.39;75.17;100805.47;108592;1277;38100;-77
2023/01/03 02:37:34;;;;;;;12.80;7.80;;;;;;;10.40;75.06;100805.63;108581;1259;36634;-78
2023/01/03 02:40:15;;;;;;;12.00;7.90;;;;;;;10.42;75.23;100813.73;108620;1254;37089;-80
2023/01/03 02:43:01;;;;;;;13.00;8.50;;;;;;;10.42;75.11;100810.10;108630;1259;37012;-80
2023/01/03 02:46:04;;;;;;;12.80;8.20;;;;;;;10.41;74.98;100812.55;108585;1272;37153;-77
2023/01/03 02:48:54;;;;;;;12.20;7.70;;;;;;;10.41;75.01;100805.79;108415;1256;37097;-77
2023/01/03 02:51:33;;;;;;;11.50;7.70;;;;;;;10.41;75.14;100806.27;108619;1258;36617;-79
2023/01/03 02:54:10;;;;;;;;;;;;;;;10.43;75.19;100808.98;108655;1273;36553;-79
2023/01/03 02:56:50;;;;;;;13.40;7.60;;;;;;;10.42;75.21;100807.64;108458;1257;174521;-80
2023/01/03 02:59:29;;;;;;;11.80;7.20;;;;;;;10.41;75.30;100818.30;108614;1259;37121;-77
2023/01/03 03:02:05;;;;;;;13.20;7.20;;;;;;;10.40;75.16;100820.45;108602;1277;38529;-77
2023/01/03 03:04:40;;;;;;;8.40;6.80;;;;;;;10.39;75.26;100824.15;108532;1277;37304;-79
2023/01/03 03:07:20;;;;;;;10.90;7.10;;;;;;;10.38;75.40;100834.28;108574;1277;37540;-77
2023/01/03 03:15:57;;;;;;;11.20;7.70;;;;;;;10.33;75.33;100847.84;108479;1259;174604;-79
2023/01/03 03:18:39;;;;;;;10.80;6.60;;;;;;;10.29;75.35;100846.38;108590;1277;37346;-80
2023/01/03 03:30:03;;;;;;;12.90;7.60;;;;;;;10.22;75.81;100860.00;108418;1258;36965;-76
2023/01/03 03:32:39;;;;;;;10.20;6.70;;;;;;;10.18;75.93;100867.60;108565;1258;37090;-77
2023/01/03 03:35:16;;;;;;;13.80;7.20;;;;;;;10.15;75.91;100875.17;108577;1266;37756;-80
2023/01/03 03:37:55;;;;;;;10.80;7.40;;;;;;;10.14;76.02;100879.58;108473;1260;37104;-81
2023/01/03 03:47:09;;;;;;;12.30;7.10;;;;;;;10.03;76.47;100897.65;109194;1260;174573;-80
2023/01/03 03:49:46;;;;;;;9.30;6.70;;;;;;;10.00;76.34;100898.43;109214;1263;36958;-76
2023/01/03 03:52:27;;;;;;;9.10;7.00;;;;;;;9.96;76.37;100905.86;108498;1267;39527;-77
2023/01/03 03:55:03;;;;;;;9.40;6.40;;;;;;;9.89;76.35;100908.83;108575;1257;37148;-77
2023/01/03 03:57:40;;;;;;;10.80;6.80;;;;;;;9.83;76.62;100911.09;108534;1258;36990;-77
2023/01/03 04:00:20;;;;;;;11.30;6.30;;;;;;;9.76;76.64;100917.54;108345;1267;37273;-77
2023/01/03 04:02:54;;;;;;;10.80;5.20;;;;;;;9.71;76.71;100921.69;108616;1265;37144;-77
2023/01/03 04:05:33;;;;;;;6.90;5.00;;;;;;;9.65;76.72;100924.45;108620;1277;36367;-80
2023/01/03 04:08:10;;;;;;;7.80;5.20;;;;;;;9.57;76.79;100933.17;108627;1277;37208;-81
2023/01/03 04:10:45;;;;;;;7.00;4.80;;;;;;;9.50;76.80;100936.85;108463;1260;36810;-76
2023/01/03 04:13:21;;;;;;;9.30;4.70;;;;;;;9.43;76.69;100939.46;108545;1259;37239;-77
2023/01/03 04:15:55;;;;;;;6.20;3.80;;;;;;;9.37;76.92;100941.33;108575;1273;37642;-77
2023/01/03 04:18:33;;;;;;;6.40;4.10;;;;;;;9.33;76.94;100947.02;108593;1277;37513;-77
2023/01/03 04:21:13;;;;;;;6.50;4.10;;;;;;;9.30;76.92;100949.70;109325;1277;37096;-79
2023/01/03 04:23:53;;;;;;;6.90;3.60;;;;;;;9.22;76.80;100952.98;109248;1259;37135;-78
2023/01/03 04:26:33;;;;;;;7.50;4.00;;;;;;;9.16;76.82;100961.33;109233;1265;174261;-79
2023/01/03 04:29:09;;;;;;;4.60;3.60;;;;;;;9.11;76.84;100962.32;108936;1262;38542;-80
2023/01/03 04:31:44;;;;;;;5.20;3.50;;;;;;;9.07;76.82;100963.45;108618;1259;36081;-80
2023/01/03 04:34:19;;;;;;;5.60;4.10;;;;;;;9.03;76.83;100967.36;108630;1255;38473;-80
2023/01/03 04:36:56;;;;;;;6.10;3.40;;;;;;;8.99;76.91;100976.85;108454;1256;37504;-80
2023/01/03 04:39:34;;;;;;;7.40;3.90;;;;;;;8.92;76.77;100977.70;108643;1270;37069;-79
2023/01/03 04:44:58;;;;;;;4.10;3.20;;;;;;;8.81;76.73;100985.23;108526;1267;37135;-76
2023/01/03 04:47:37;;;;;;;3.80;2.80;;;;;;;8.76;76.81;100986.55;108563;1259;36844;-78
2023/01/03 04:50:15;;;;;;;4.30;2.70;;;;;;;8.72;76.83;100995.33;108941;1277;174689;-80
2023/01/03 04:52:52;;;;;;;3.90;2.50;;;;;;;8.67;77.01;100995.79;109484;1277;37156;-80
2023/01/03 04:55:26;;;;;;;2.20;1.90;;;;;;;8.65;77.06;100999.48;108807;1277;37257;-77
2023/01/03 04:58:06;;;;;;;3.40;2.10;;;;;;;8.63;77.13;101003.17;108531;1257;37430;-77
2023/01/03 05:00:44;;;;;;;3.30;2.00;;;;;;;8.62;76.98;101004.59;108431;1277;37100;-78
2023/01/03 05:03:23;;;;;;;4.20;2.00;;;;;;;8.57;76.81;101013.88;108544;1259;36625;-77
2023/01/03 05:06:07;;;;;;;3.40;2.20;;;;;;;8.53;76.76;101016.40;109218;1277;36541;-80
2023/01/03 05:08:47;;;;;;;2.80;1.90;;;;;;;8.47;76.99;101020.35;109544;1258;37307;-79
2023/01/03 05:11:21;;;;;;;2.90;2.00;;;;;;;8.44;76.94;101016.59;108603;1257;38117;-77
2023/01/03 05:13:56;;;;;;;3.40;2.10;;;;;;;8.40;76.91;101020.48;108594;1259;37409;-79
2023/01/03 05:16:31;;;;;;;2.60;2.00;;;;;;;8.36;76.89;101018.45;108652;1265;37105;-82
2023/01/03 05:19:06;;;;;;;2.50;2.10;;;;;;;8.32;76.95;101021.98;108721;1254;37128;-78
2023/01/03 05:27:24;;;;;;;3.10;2.50;;;;;;;8.23;77.09;101030.32;108560;1277;37219;-78
2023/01/03 05:30:04;;;;;;;3.60;2.50;;;;;;;8.18;77.16;101026.56;108605;1271;37074;-79
2023/01/03 05:32:39;;;;;;;3.70;2.40;;;;;;;8.14;77.20;101030.14;108599;1277;37100;-77
2023/01/03 05:35:17;;;;;;;3.10;2.00;;;;;;;8.07;77.05;101029.02;108690;1277;37580;-77
2023/01/03 05:37:54;;;;;;;2.10;1.80;;;;;;;8.00;77.22;101033.84;108774;1259;36954;-78
2023/01/03 05:40:29;;;;;;;6.20;2.20;;;;;;;7.96;77.52;101041.38;108787;1256;37583;-78
2023/01/03 05:43:03;;;;;;;2.40;2.00;;;;;;;7.91;77.49;101043.71;108589;1254;35987;-78
2023/01/03 05:45:41;;;;;;;2.10;1.60;;;;;;;7.85;77.87;101046.94;108618;1260;37047;-79
2023/01/03 05:48:18;;;;;;;2.60;1.50;;;;;;;7.80;77.89;101050.84;108635;1254;37098;-77
2023/01/03 05:50:56;;;;;;;3.10;1.60;;;;;;;7.77;78.03;101053.32;108448;1261;37267;-77
2023/01/03 05:53:33;;;;;;;2.40;1.70;;;;;;;7.74;78.23;101054.57;109046;1266;36691;-77
2023/01/03 05:56:13;;;;;;;2.70;1.60;;;;;;;7.71;78.35;101060.54;108618;1259;36644;-79
2023/01/03 05:58:48;;;;;;;2.70;1.80;;;;;;;7.67;78.42;101062.86;108632;1270;37112;-78
2023/01/03 06:01:25;;;;;;;4.90;1.90;;;;;;;7.61;78.36;101064.85;108584;1254;37105;-78
2023/01/03 06:04:00;;;;;;;3.80;1.80;;;;;;;7.59;78.48;101069.05;107947;1259;908630;-79
2023/01/03 06:06:38;;;;;;;3.60;2.20;;;;;;;7.57;78.43;101071.17;108507;1261;37624;-79
2023/01/03 06:09:13;;;;;;;4.80;2.00;;;;;;;7.51;78.45;101080.27;108574;1257;38314;-79
2023/01/03 06:11:50;;;;;;;4.20;1.90;;;;;;;7.47;78.59;101083.10;108644;1260;37184;-79
2023/01/03 06:14:27;;;;;;;3.80;1.90;;;;;;;7.47;78.77;101084.84;108468;1262;38324;-79
2023/01/03 06:19:58;;;;;;;3.90;1.90;;;;;;;7.52;78.88;101086.85;108577;1277;37130;-79
2023/01/03 06:22:33;;;;;;;2.80;1.50;;;;;;;7.57;78.84;101090.95;108371;1259;272067;-78
2023/01/03 06:25:11;;;;;;;5.50;2.10;;;;;;;7.61;78.91;101092.98;108564;1277;37182;-78
2023/01/03 06:27:48;;;;;;;5.30;1.70;;;;;;;7.67;78.75;101095.34;108585;1277;37609;-79
2023/01/03 06:30:25;;;;;;;3.30;1.70;;;;;;;7.71;78.80;101097.36;108569;1255;36996;-78
2023/01/03 06:33:03;;;;;;;4.00;1.90;;;;;;;7.76;78.74;101098.67;108460;1260;37120;-77
2023/01/03 06:35:39;;;;;;;3.20;1.80;;;;;;;7.81;78.56;101088.87;108436;1261;36385;-77
2023/01/03 06:38:14;;;;;;;2.50;1.30;;;;;;;7.84;78.39;101081.19;108589;1259;38774;-78
2023/01/03 06:40:52;;;;;;;3.90;1.60;;;;;;;7.88;78.29;101084.25;108480;1261;187562;-79
2023/01/03 06:43:29;;;;;;;3.50;1.50;;;;;;;7.91;78.08;101099.84;108569;1265;37183;-78
2023/01/03 06:54:45;;;;;;;4.00;1.80;;;;;;;8.02;77.75;101129.72;108563;1274;37109;-77
2023/01/03 06:57:20;;;;;;;3.30;1.60;;;;;;;8.04;77.89;101136.30;108490;1277;37467;-79
2023/01/03 06:59:55;;;;;;;3.40;1.80;;;;;;;8.07;77.90;101136.77;108627;1277;37018;-78
2023/01/03 07:02:29;;;;;;;3.20;1.70;;;;;;;8.09;77.71;101140.56;108445;1257;39031;-76
2023/01/03 07:05:05;;;;;;;3.10;2.00;;;;;;;8.12;77.72;101146.07;108600;1277;38422;-78
2023/01/03 07:07:39;;;;;;;3.70;1.90;;;;;;;8.16;77.49;101147.05;108609;1259;36652;-79
2023/01/03 07:10:16;;;;;;;3.10;1.90;;;;;;;8.16;77.45;101150.19;108478;1259;172570;-76
2023/01/03 07:15:48;;;;;;;3.50;1.60;;;;;;;8.20;77.38;101154.65;108633;1256;36129;-77
2023/01/03 07:18:29;;;;;;;4.50;2.00;;;;;;;8.22;77.40;101154.60;108563;1259;37123;-77
2023/01/03 07:21:07;;;;;;;3.60;1.80;;;;;;;8.24;77.33;101157.18;108593;1254;37046;-75
2023/01/03 07:23:43;;;;;;;3.10;1.60;;;;;;;8.25;77.22;101164.65;108400;1260;36222;-75
2023/01/03 07:26:20;;;;;;;3.80;1.80;;;;;;;8.24;77.32;101168.13;108270;1261;37373;-78
2023/01/03 07:29:02;;;;;;;4.70;2.40;;;;;;;8.25;77.14;101168.98;108622;1259;37321;-77
2023/01/03 07:31:48;;;;;;;3.30;2.00;;;;;;;8.26;77.07;101173.83;108574;1265;37571;-77
2023/01/03 07:34:27;;;;;;;4.40;2.70;;;;;;;8.28;76.89;101174.68;108611;1277;36952;-77
2023/01/03 07:37:01;;;;;;;5.40;2.80;;;;;;;8.29;76.72;101183.70;108587;1254;37017;-76
2023/01/03 07:39:40;;;;;;;3.00;1.60;;;;;;;8.28;76.64;101186.67;108602;1277;37461;-77
2023/01/03 07:45:23;;;;;;;2.20;1.40;;;;;;;8.31;76.74;101189.77;108596;1258;38080;-76
2023/01/03 07:48:02;;;;;;;2.80;1.40;;;;;;;8.34;76.59;101198.76;108483;1259;174408;-75
2023/01/03 07:50:40;;;;;;;5.10;1.60;;;;;;;8.37;76.69;101200.64;108599;1256;37258;-75
2023/01/03 07:53:15;;;;;;;4.40;1.70;;;;;;;8.41;76.80;101204.05;108429;1262;37292;-75
2023/01/03 07:55:51;;;;;;;2.40;1.90;;;;;;;8.43;76.74;101208.73;108601;1277;37141;-75
2023/01/03 07:58:28;;;;;;;4.40;1.80;;;;;;;8.45;76.68;101206.77;108596;1257;37353;-74
2023/01/03 08:01:09;;;;;;;3.70;1.80;;;;;;;8.49;76.71;101212.82;108588;1258;37067;-74
2023/01/03 08:03:48;;;;;;;3.10;2.10;;;;;;;8.53;76.85;101212.22;108590;1264;37611;-75
2023/01/03 08:06:24;;;;;;;5.30;2.80;;;;;;;8.60;76.99;101219.40;108572;1258;36483;-75
2023/01/03 08:14:45;;;;;;;4.10;2.10;;;;;;;8.80;77.23;101214.73;108562;1277;38584;-75
2023/01/03 08:17:19;;;;;;;3.70;2.20;;;;;;;8.86;77.04;101215.33;108423;1260;37440;-75
2023/01/03 08:19:54;;;;;;;4.40;2.80;;;;;;;8.92;76.96;101216.77;108595;1277;37050;-75
2023/01/03 08:22:31;;;;;;;4.50;2.90;;;;;;;8.98;76.89;101220.52;108547;1256;37149;-77
2023/01/03 08:25:06;;;;;;;4.80;3.40;;;;;;;9.04;77.11;101226.13;108549;1277;36396;-78
2023/01/03 08:27:41;;;;;;;6.00;3.20;;;;;;;9.08;77.06;101225.20;108286;1256;174663;-78
2023/01/03 08:30:19;;;;;;;4.50;2.90;;;;;;;9.11;76.98;101229.50;108587;1259;36599;-78
2023/01/03 08:32:56;;;;;;;4.40;2.80;;;;;;;9.14;76.92;101233.27;108404;1262;37442;-79
2023/01/03 08:35:36;;;;;;;6.90;3.20;;;;;;;9.19;76.94;101235.77;108463;1277;36996;-76
2023/01/03 08:38:16;;;;;;;4.20;3.10;;;;;;;9.24;76.84;101237.95;108422;1260;37346;-75
2023/01/03 08:40:52;;;;;;;5.30;3.60;;;;;;;9.26;76.98;101245.40;108551;1268;36509;-76
2023/01/03 08:43:28;;;;;;;4.10;3.30;;;;;;;9.28;76.79;101248.67;108249;1261;38714;-77
2023/01/03 08:46:10;;;;;;;5.90;3.50;;;;;;;9.27;76.74;101250.25;108590;1259;36339;-76
2023/01/03 08:48:46;;;;;;;4.90;3.70;;;;;;;9.27;76.80;101253.92;108564;1259;37843;-76
2023/01/03 08:51:21;;;;;;;4.20;3.80;;;;;;;9.26;76.48;101258.98;108621;1256;36962;-78
2023/01/03 08:53:55;;;;;;;3.90;3.30;;;;;;;9.26;76.70;101262.80;107926;1256;905793;-77
2023/01/03 08:56:33;;;;;;;9.30;4.50;;;;;;;9.25;76.60;101263.19;108588;1256;38639;-76
2023/01/03 08:59:12;;;;;;;4.70;4.20;;;;;;;9.23;76.29;101265.66;108593;1277;37004;-74
2023/01/03 09:01:48;;;;;;;5.90;3.80;;;;;;;9.19;76.55;101275.47;108595;1259;37306;-76
2023/01/03 09:04:25;;;;;;;5.20;3.30;;;;;;;9.17;76.28;101280.75;108604;1277;36993;-76
2023/01/03 09:07:03;;;;;;;4.80;3.90;;;;;;;9.15;76.37;101284.95;108554;1259;39089;-77
2023/01/03 09:09:37;;;;;;;3.70;3.40;;;;;;;9.14;76.36;101282.70;108434;1277;37288;-76
2023/01/03 09:12:14;;;;;;;6.60;3.80;;;;;;;9.12;76.29;101280.48;108416;1262;36992;-76
2023/01/03 09:14:50;;;;;;;4.90;3.80;;;;;;;9.09;75.87;101286.95;108398;1260;37393;-77
2023/01/03 09:17:25;;;;;;;4.70;3.50;;;;;;;9.06;75.63;101288.41;108603;1259;36981;-76
2023/01/03 09:20:01;;;;;;;4.50;3.50;;;;;;;9.05;75.81;101288.25;108628;1254;37149;-76
2023/01/03 09:22:39;;;;;;;4.60;3.60;;;;;;;9.17;76.15;101291.53;108565;1265;37688;-78
2023/01/03 09:25:14;;;;;;;6.60;4.20;;;;;;;9.42;76.10;101293.17;108588;1259;37175;-77
2023/01/03 09:27:52;;;;;;;4.70;3.60;;;;;;;9.54;75.70;101291.02;108562;1272;37608;-76
2023/01/03 09:30:26;;;;;;;4.50;3.30;;;;;;;9.62;75.23;101293.50;108577;1259;37431;-80
2023/01/03 09:33:05;;;;;;;6.50;4.00;;;;;;;9.67;74.84;101289.92;108605;1277;36970;-79
2023/01/03 09:35:43;;;;;;;5.30;3.60;;;;;;;9.69;74.59;101291.24;108447;1259;38285;-76
2023/01/03 09:38:18;;;;;;;4.80;3.40;;;;;;;9.72;74.32;101293.66;108443;1262;37115;-75
2023/01/03 09:40:59;;;;;;;5.80;3.10;;;;;;;9.77;73.79;101299.11;108453;1277;36287;-75
2023/01/03 09:43:39;;;;;;;4.20;3.00;;;;;;;9.88;73.93;101296.81;108515;1269;36625;-73
2023/01/03 09:46:19;;;;;;;3.20;1.80;;;;;;;9.96;72.86;101297.52;108641;1259;38551;-78
2023/01/03 09:48:56;;;;;;;3.30;1.40;;;;;;;9.98;71.17;101297.80;108612;1265;36618;-77
2023/01/03 10:03:46;;;;;;;3.50;1.50;;;;;;;9.65;66.22;101312.95;108624;1256;37494;-75
2023/01/03 10:06:35;;;;;;;2.70;1.60;;;;;;;9.52;66.37;101319.98;108692;1259;36967;-76
2023/01/03 10:09:23;;;;;;;4.00;1.40;;;;;;;9.48;66.91;101326.84;108701;1259;36131;-76
2023/01/03 10:12:07;;;;;;;4.70;1.80;;;;;;;9.44;66.42;101326.40;108596;1266;36082;-77
2023/01/03 10:14:55;;;;;;;5.70;2.30;;;;;;;9.40;65.82;101323.34;108626;1259;37059;-76
2023/01/03 10:17:36;;;;;;;4.60;1.80;;;;;;;9.32;65.19;101324.87;108614;1277;37020;-76
2023/01/03 10:20:40;;;;;;;6.20;2.00;;;;;;;9.23;63.62;101328.68;108449;1277;37049;-77
2023/01/03 10:23:17;;;;;;;4.30;2.10;;;;;;;9.11;64.10;101336.71;108595;1260;37931;-77
2023/01/03 10:25:54;;;;;;;7.10;2.00;;;;;;;9.00;63.38;101340.55;108602;1277;37044;-78
2023/01/03 10:28:34;;;;;;;4.90;1.90;;;;;;;8.90;63.76;101342.45;108603;1259;37381;-76
2023/01/03 10:31:24;;;;;;;5.40;1.90;;;;;;;8.81;63.12;101337.89;108440;1260;187283;-77
2023/01/03 10:34:05;;;;;;;7.20;4.00;;;;;;;8.75;63.36;101337.45;108618;1259;37144;-75
2023/01/03 10:36:44;;;;;;;3.70;2.10;;;;;;;8.72;63.12;101336.11;108560;1277;37078;-76
2023/01/03 10:39:27;;;;;;;5.60;3.00;;;;;;;8.67;63.63;101342.96;108610;1259;37302;-77
2023/01/03 10:42:03;;;;;;;6.30;3.00;;;;;;;8.64;63.55;101343.71;108402;1256;37045;-77
2023/01/03 10:44:39;;;;;;;3.60;1.90;;;;;;;8.59;63.65;101346.91;108521;1270;174510;-77
2023/01/03 10:47:19;;;;;;;;;;;;;;;8.56;63.29;101347.48;108657;1266;36870;-76
2023/01/03 10:50:02;;;;;;;4.30;1.50;;;;;;;8.48;63.43;101355.23;108658;1259;37016;-74
2023/01/03 10:52:40;;;;;;;5.20;1.50;;;;;;;8.46;63.39;101353.52;108657;1277;36979;-74
2023/01/03 10:55:25;;;;;;;4.00;2.00;;;;;;;8.44;63.67;101346.25;108518;1258;37085;-74
2023/01/03 10:58:22;;;;;;;6.20;2.00;;;;;;;8.43;63.86;101343.14;108686;1277;36969;-72
2023/01/03 11:01:18;;;;;;;6.20;2.70;;;;;;;8.40;64.06;101346.83;108546;1270;37221;-78
2023/01/03 11:04:17;;;;;;;4.00;2.40;;;;;;;8.37;63.99;101343.36;108628;1256;37183;-76
2023/01/03 11:07:12;;;;;;;5.90;2.20;;;;;;;8.39;64.09;101344.41;108490;1265;37369;-76
2023/01/03 11:09:52;;;;;;;6.40;3.20;;;;;;;8.44;64.56;101345.04;108581;1277;37647;-76
2023/01/03 11:12:36;;;;;;;3.80;2.00;;;;;;;8.52;64.29;101341.79;108625;1266;37524;-76
2023/01/03 11:15:20;;;;;;;9.20;5.40;;;;;;;8.63;64.10;101336.77;108614;1259;36677;-78
2023/01/03 11:18:00;;;;;;;3.90;2.10;;;;;;;8.72;63.52;101339.42;108659;1259;36127;-78
2023/01/03 11:20:43;;;;;;;5.70;3.70;;;;;;;8.77;62.80;101343.86;108633;1277;37514;-78
2023/01/03 11:23:30;;;;;;;5.40;2.10;;;;;;;8.81;61.88;101346.23;108612;1259;37257;-77
2023/01/03 11:26:12;;;;;;;6.10;2.90;;;;;;;8.76;61.30;101349.09;108595;1259;37012;-77
2023/01/03 11:29:11;;;;;;;4.30;3.10;;;;;;;8.68;61.45;101361.92;108445;1259;174667;-76
2023/01/03 11:31:57;;;;;;;4.60;2.10;;;;;;;8.57;61.39;101363.81;108604;1259;37027;-76
2023/01/03 11:34:51;;;;;;;3.70;1.80;;;;;;;8.45;61.18;101364.50;108681;1256;37140;-75
2023/01/03 11:37:38;;;;;;;6.80;3.90;;;;;;;8.31;61.68;101359.95;108588;1256;37072;-76
2023/01/03 11:40:25;;;;;;;5.20;2.70;;;;;;;8.21;61.51;101358.70;108589;1277;37021;-77
2023/01/03 11:43:12;;;;;;;5.50;2.80;;;;;;;8.10;61.53;101365.26;108456;1274;174679;-77
2023/01/03 11:46:05;;;;;;;4.40;3.00;;;;;;;7.95;61.03;101368.03;108591;1254;37140;-78
2023/01/03 11:49:07;;;;;;;5.80;3.00;;;;;;;7.84;61.37;101370.77;108505;1256;174657;-78
2023/01/03 11:51:54;;;;;;;6.60;3.40;;;;;;;7.76;61.61;101370.33;108557;1277;38540;-76
2023/01/03 11:59:02;;;;;;;5.10;2.50;;;;;;;7.71;61.85;101372.98;105026;1316;545372;-75
2023/01/03 12:01:53;;;;;;;4.80;2.60;;;;;;;7.69;61.93;101368.83;107902;1267;37011;-75
2023/01/03 12:04:44;;;;;;;3.40;2.10;;;;;;;7.70;62.28;101368.30;107877;1263;37191;-75
2023/01/03 12:07:19;;;;;;;4.80;2.40;;;;;;;7.73;62.42;101370.35;107900;1263;39038;-75
2023/01/03 12:09:53;;;;;;;7.40;4.30;;;;;;;7.78;62.58;101373.25;107845;1269;37176;-74
2023/01/03 12:12:59;;;;;;;5.50;3.00;;;;;;;7.81;62.61;101373.92;107427;1269;769634;-78
2023/01/03 12:15:38;;;;;;;5.70;2.50;;;;;;;7.84;62.39;101376.16;107977;1273;36389;-75
2023/01/03 12:18:14;;;;;;;4.90;2.40;;;;;;;7.86;62.54;101376.46;107363;1284;922775;-78
2023/01/03 12:20:50;;;;;;;3.70;1.80;;;;;;;7.89;62.59;101380.27;108081;1284;36706;-76
2023/01/03 12:23:31;;;;;;;4.00;2.00;;;;;;;7.89;62.34;101373.65;108041;1284;37067;-76
2023/01/03 12:26:05;;;;;;;5.00;2.40;;;;;;;7.88;62.22;101374.89;108023;1284;37124;-77
2023/01/03 12:28:42;;;;;;;4.90;2.20;;;;;;;7.85;62.30;101376.98;108010;1260;36292;-77
2023/01/03 12:31:24;;;;;;;4.60;2.70;;;;;;;7.82;62.35;101380.16;108034;1265;36892;-75
2023/01/03 12:34:05;;;;;;;5.30;1.90;;;;;;;7.77;62.17;101378.48;108031;1284;36956;-77
2023/01/03 12:36:48;;;;;;;4.00;1.90;;;;;;;7.73;62.39;101379.55;108026;1267;37093;-74
2023/01/03 12:39:40;;;;;;;10.00;3.50;;;;;;;7.69;62.47;101381.85;108045;1276;36575;-75
2023/01/03 12:42:19;;;;;;;5.70;2.50;;;;;;;7.66;62.21;101377.89;107995;1262;36331;-76
2023/01/03 12:44:55;;;;;;;6.20;2.20;;;;;;;7.63;62.27;101377.05;108168;1264;38647;-76
2023/01/03 12:47:34;;;;;;;8.00;2.80;;;;;;;7.60;62.33;101378.46;108681;1258;36986;-75
2023/01/03 12:50:10;;;;;;;4.70;1.80;;;;;;;7.56;61.92;101380.77;108551;1271;36819;-75
2023/01/03 12:52:41;;;;;;;3.10;1.70;;;;;;;7.51;61.28;101386.19;108661;1257;37778;-75
2023/01/03 12:55:23;;;;;;;3.10;1.50;;;;;;;7.44;60.89;101391.64;108666;1276;37464;-77
2023/01/03 12:58:07;;;;;;;3.20;1.30;;;;;;;7.36;60.49;101390.66;108672;1258;37568;-75
2023/01/03 13:01:00;;;;;;;4.70;1.40;;;;;;;7.27;60.46;101392.46;108590;1260;37051;-75
2023/01/03 13:03:35;;;;;;;2.80;1.50;;;;;;;7.19;60.79;101388.54;108641;1258;36963;-74
2023/01/03 13:06:10;;;;;;;3.90;1.40;;;;;;;7.13;60.76;101390.33;108580;1254;37123;-77
2023/01/03 13:08:47;;;;;;;4.40;1.30;;;;;;;7.05;60.96;101391.25;108638;1254;37144;-77
2023/01/03 13:11:24;;;;;;;3.80;1.40;;;;;;;7.00;61.09;101390.08;108676;1276;37804;-76
2023/01/03 13:13:58;;;;;;;2.60;1.40;;;;;;;6.93;61.26;101392.90;108811;1263;37434;-74
2023/01/03 13:16:43;;;;;;;5.10;1.40;;;;;;;6.87;61.38;101392.94;108704;1258;36645;-75
2023/01/03 13:19:52;;;;;;;4.50;1.50;;;;;;;6.80;61.32;101394.89;108768;1257;37193;-77
2023/01/03 13:22:46;;;;;;;;;;;;;;;6.70;61.35;101390.44;108839;1271;37163;-77
2023/01/03 13:25:41;;;;;;;2.50;1.20;;;;;;;6.58;61.51;101391.54;108733;1253;36964;-76
2023/01/03 13:28:35;;;;;;;4.50;1.90;;;;;;;6.50;61.60;101399.04;108796;1254;36233;-76
2023/01/03 13:31:45;;;;;;;2.20;1.40;;;;;;;6.41;61.93;101400.13;108921;1272;36994;-75
2023/01/03 13:34:32;;;;;;;4.40;1.70;;;;;;;6.31;62.24;101399.66;109003;1254;37229;-77
2023/01/03 13:37:19;;;;;;;3.20;1.60;;;;;;;6.22;62.30;101401.41;108952;1256;38624;-75
2023/01/03 13:40:15;;;;;;;3.00;1.60;;;;;;;6.14;62.32;101406.63;108781;1256;174796;-77